Home   Weather   Spain   Córdoba   Past weeks
Flag for Spain

Past Weather in Córdoba, Córdoba, Spain — Yesterday and Last 2 Weeks

Currently: 50 °F. Clear. (Weather station: Cordoba / Aeropuerto, Spain). See more current weather

Past Weather in Córdoba — Graph

°F

Córdoba Temperature Yesterday

Maximum temperature yesterday: 72 °F (at 3:30 pm)
Minimum temperature yesterday: 41 °F (at 7:00 am)
Average temperature yesterday: 56 °F

High & Low Weather Summary for the Past Weeks

 TemperatureHumidityPressure
High75 °F (Feb 20, 4:30 pm)100% (Feb 7, 5:00 am)30.57 "Hg (Feb 7, 5:00 am)
Low39 °F (Feb 18, 6:30 am)39% (Feb 20, 5:30 pm)29.30 "Hg (Feb 9, 6:30 pm)
Average55 °F84%30.13 "Hg
* Reported Feb 7 2:00 am — Feb 22 2:30 am, Córdoba. Weather by CustomWeather, © 2024

Note: Actual official high and low records may vary slightly from our data, if they occured in-between our weather recording intervals... More about our weather records

Córdoba Weather History for the Previous 24 Hours

Scroll right to see more
 ConditionsComfort  
Time TempWeatherWind HumidityBarometerVisibility
2:30 am
Thu, Feb 22
50 °FClear.3 mph94%30.21 "Hg10 mi
2:00 am52 °FClear.1 mph94%30.21 "Hg10 mi
12:30 am54 °FClear.2 mph94%30.24 "Hg10 mi
12:00 am54 °FClear.No wind88%30.24 "Hg10 mi
11:30 pm
Wed, Feb 21
54 °FClear.No wind88%30.24 "Hg10 mi
11:00 pm55 °FClear.1 mph82%30.27 "Hg10 mi
10:30 pm55 °FClear.3 mph82%30.27 "Hg10 mi
10:00 pm55 °FClear.2 mph82%30.27 "Hg10 mi
9:30 pm57 °FClear.5 mph77%30.27 "Hg10 mi
9:00 pm57 °FClear.No wind77%30.27 "Hg10 mi
8:30 pm61 °FClear.3 mph63%30.27 "Hg10 mi
8:00 pm61 °FClear.6 mph68%30.24 "Hg10 mi
7:30 pm61 °FClear.5 mph68%30.24 "Hg10 mi
7:00 pm64 °FSunny.5 mph60%30.24 "Hg10 mi
6:30 pm68 °FPassing clouds.5 mph53%30.24 "HgN/A
6:00 pm70 °FPassing clouds.6 mph46%30.24 "HgN/A
5:30 pm70 °FSunny.5 mph50%30.24 "Hg10 mi
5:00 pm72 °FPassing clouds.5 mph47%30.24 "HgN/A
4:30 pm72 °FPassing clouds.5 mph44%30.24 "HgN/A
4:00 pm72 °FPassing clouds.3 mph44%30.24 "HgN/A
3:30 pm72 °FSunny.1 mph44%30.27 "Hg10 mi
3:00 pm70 °FSunny.1 mph46%30.27 "Hg10 mi
2:30 pm70 °FSunny.2 mph50%30.30 "Hg10 mi
2:00 pm66 °FPassing clouds.6 mph49%30.30 "HgN/A
1:30 pm66 °FSunny.8 mph46%30.33 "Hg10 mi
1:00 pm64 °FPassing clouds.8 mph49%30.33 "HgN/A
12:30 pm63 °FPassing clouds.10 mph52%30.36 "HgN/A
12:00 pm61 °FPassing clouds.9 mph55%30.36 "HgN/A
11:30 am59 °FPassing clouds.8 mph59%30.36 "HgN/A
11:00 am55 °FPassing clouds.7 mph67%30.36 "HgN/A
10:30 am54 °FSunny.6 mph77%30.39 "Hg10 mi
9:30 am48 °FPassing clouds.5 mph87%30.36 "HgN/A
9:00 am46 °FPassing clouds.3 mph87%30.36 "HgN/A
8:30 am45 °FSunny.6 mph93%30.33 "Hg10 mi
8:00 am41 °FClear.8 mph100%30.33 "Hg10 mi
7:30 am41 °FClear.No wind100%30.33 "Hg10 mi
7:00 am41 °FClear.1 mph100%30.33 "Hg10 mi
6:30 am43 °FPassing clouds.3 mph93%30.33 "HgN/A
6:00 am45 °FClear.3 mph100%30.33 "Hg10 mi
5:30 am43 °FClear.3 mph93%30.33 "Hg10 mi
5:00 am45 °FClear.2 mph93%30.33 "Hg10 mi
4:30 am45 °FClear.2 mph93%30.33 "Hg10 mi
4:00 am45 °FClear.3 mph93%30.33 "Hg10 mi
3:30 am45 °FLight rain. Clear.1 mph100%30.33 "HgN/A
3:00 am43 °FClear.No wind100%30.33 "Hg10 mi
Weather by CustomWeather, © 2024

See weather overview